sensor_id;sensor_type;location;lat;lon;timestamp;temperature;humidity
5938;DHT22;2994;51.220;4.412;2022-12-29T00:02:10;13.90;76.18
5938;DHT22;2994;51.220;4.412;2022-12-29T00:04:36;13.92;76.30
5938;DHT22;2994;51.220;4.412;2022-12-29T00:07:02;13.92;76.45
5938;DHT22;2994;51.220;4.412;2022-12-29T00:09:30;13.92;76.60
5938;DHT22;2994;51.220;4.412;2022-12-29T00:11:55;13.92;76.79
5938;DHT22;2994;51.220;4.412;2022-12-29T00:14:21;13.89;77.06
5938;DHT22;2994;51.220;4.412;2022-12-29T00:17:16;13.94;76.98
5938;DHT22;2994;51.220;4.412;2022-12-29T00:19:41;13.81;77.64
5938;DHT22;2994;51.220;4.412;2022-12-29T00:22:26;13.92;77.18
5938;DHT22;2994;51.220;4.412;2022-12-29T00:25:11;14.03;76.79
5938;DHT22;2994;51.220;4.412;2022-12-29T00:27:55;13.98;76.93
5938;DHT22;2994;51.220;4.412;2022-12-29T00:30:39;13.99;76.87
5938;DHT22;2994;51.220;4.412;2022-12-29T00:33:26;13.98;76.80
5938;DHT22;2994;51.220;4.412;2022-12-29T00:36:38;13.96;76.79
5938;DHT22;2994;51.220;4.412;2022-12-29T00:39:14;13.94;76.87
5938;DHT22;2994;51.220;4.412;2022-12-29T00:42:06;14.00;76.41
5938;DHT22;2994;51.220;4.412;2022-12-29T00:44:51;14.03;76.16
5938;DHT22;2994;51.220;4.412;2022-12-29T00:47:16;14.04;75.94
5938;DHT22;2994;51.220;4.412;2022-12-29T00:49:42;14.08;75.54
5938;DHT22;2994;51.220;4.412;2022-12-29T00:52:09;14.09;75.39
5938;DHT22;2994;51.220;4.412;2022-12-29T00:54:39;14.08;74.95
5938;DHT22;2994;51.220;4.412;2022-12-29T00:57:06;14.07;74.79
5938;DHT22;2994;51.220;4.412;2022-12-29T00:59:31;14.07;74.63
5938;DHT22;2994;51.220;4.412;2022-12-29T01:01:57;14.08;74.56
5938;DHT22;2994;51.220;4.412;2022-12-29T01:04:24;14.10;73.99
5938;DHT22;2994;51.220;4.412;2022-12-29T01:06:50;14.09;73.91
5938;DHT22;2994;51.220;4.412;2022-12-29T01:09:17;14.09;73.74
5938;DHT22;2994;51.220;4.412;2022-12-29T01:12:02;14.07;73.61
5938;DHT22;2994;51.220;4.412;2022-12-29T01:14:28;14.09;73.28
5938;DHT22;2994;51.220;4.412;2022-12-29T01:16:55;14.11;73.16
5938;DHT22;2994;51.220;4.412;2022-12-29T01:19:21;14.10;72.90
5938;DHT22;2994;51.220;4.412;2022-12-29T01:21:47;14.13;72.70
5938;DHT22;2994;51.220;4.412;2022-12-29T01:24:14;14.07;72.93
5938;DHT22;2994;51.220;4.412;2022-12-29T01:26:39;14.07;72.38
5938;DHT22;2994;51.220;4.412;2022-12-29T01:29:05;14.03;71.85
5938;DHT22;2994;51.220;4.412;2022-12-29T01:31:30;14.07;72.02
5938;DHT22;2994;51.220;4.412;2022-12-29T01:33:55;14.10;71.59
5938;DHT22;2994;51.220;4.412;2022-12-29T01:36:21;14.15;71.61
5938;DHT22;2994;51.220;4.412;2022-12-29T01:38:47;14.23;71.17
5938;DHT22;2994;51.220;4.412;2022-12-29T01:41:17;14.23;71.51
5938;DHT22;2994;51.220;4.412;2022-12-29T01:43:48;14.23;71.57
5938;DHT22;2994;51.220;4.412;2022-12-29T01:49:11;14.27;71.58
5938;DHT22;2994;51.220;4.412;2022-12-29T01:51:47;14.20;71.90
5938;DHT22;2994;51.220;4.412;2022-12-29T01:54:17;14.28;72.06
5938;DHT22;2994;51.220;4.412;2022-12-29T01:56:45;14.27;72.38
5938;DHT22;2994;51.220;4.412;2022-12-29T01:59:15;14.26;72.60
5938;DHT22;2994;51.220;4.412;2022-12-29T02:01:42;14.24;72.67
5938;DHT22;2994;51.220;4.412;2022-12-29T02:04:09;14.25;73.01
5938;DHT22;2994;51.220;4.412;2022-12-29T02:06:41;14.25;72.93
5938;DHT22;2994;51.220;4.412;2022-12-29T02:09:09;14.23;73.24
5938;DHT22;2994;51.220;4.412;2022-12-29T02:11:35;14.20;73.48
5938;DHT22;2994;51.220;4.412;2022-12-29T02:14:01;14.15;73.56
5938;DHT22;2994;51.220;4.412;2022-12-29T02:16:31;14.21;73.32
5938;DHT22;2994;51.220;4.412;2022-12-29T02:21:46;14.18;73.11
5938;DHT22;2994;51.220;4.412;2022-12-29T02:30:02;14.13;73.29
5938;DHT22;2994;51.220;4.412;2022-12-29T02:35:50;14.08;73.15
5938;DHT22;2994;51.220;4.412;2022-12-29T02:38:28;14.14;72.80
5938;DHT22;2994;51.220;4.412;2022-12-29T02:47:04;14.09;73.15
5938;DHT22;2994;51.220;4.412;2022-12-29T02:49:38;14.10;72.72
5938;DHT22;2994;51.220;4.412;2022-12-29T02:52:15;14.04;73.14
5938;DHT22;2994;51.220;4.412;2022-12-29T02:54:41;14.05;73.06
5938;DHT22;2994;51.220;4.412;2022-12-29T02:59:41;14.00;72.88
5938;DHT22;2994;51.220;4.412;2022-12-29T03:10:46;13.99;72.64
5938;DHT22;2994;51.220;4.412;2022-12-29T03:19:06;13.85;73.15
5938;DHT22;2994;51.220;4.412;2022-12-29T03:21:44;13.86;73.16
5938;DHT22;2994;51.220;4.412;2022-12-29T03:24:32;13.90;72.62
5938;DHT22;2994;51.220;4.412;2022-12-29T03:27:01;13.90;72.59
5938;DHT22;2994;51.220;4.412;2022-12-29T03:29:30;13.91;72.65
5938;DHT22;2994;51.220;4.412;2022-12-29T03:31:58;13.90;72.45
5938;DHT22;2994;51.220;4.412;2022-12-29T03:34:26;13.88;72.13
5938;DHT22;2994;51.220;4.412;2022-12-29T03:37:02;13.91;71.72
5938;DHT22;2994;51.220;4.412;2022-12-29T03:39:30;13.86;72.06
5938;DHT22;2994;51.220;4.412;2022-12-29T03:42:01;13.86;72.03
5938;DHT22;2994;51.220;4.412;2022-12-29T03:44:33;13.85;71.37
5938;DHT22;2994;51.220;4.412;2022-12-29T03:47:00;13.85;70.76
5938;DHT22;2994;51.220;4.412;2022-12-29T03:49:25;13.81;70.38
5938;DHT22;2994;51.220;4.412;2022-12-29T03:51:51;13.76;70.37
5938;DHT22;2994;51.220;4.412;2022-12-29T03:54:16;13.73;70.09
5938;DHT22;2994;51.220;4.412;2022-12-29T03:56:42;13.64;70.25
5938;DHT22;2994;51.220;4.412;2022-12-29T03:59:07;13.65;70.32
5938;DHT22;2994;51.220;4.412;2022-12-29T04:01:32;13.65;70.45
5938;DHT22;2994;51.220;4.412;2022-12-29T04:03:58;13.67;70.00
5938;DHT22;2994;51.220;4.412;2022-12-29T04:06:23;13.67;69.84
5938;DHT22;2994;51.220;4.412;2022-12-29T04:08:49;13.68;69.36
5938;DHT22;2994;51.220;4.412;2022-12-29T04:11:14;13.56;69.86
5938;DHT22;2994;51.220;4.412;2022-12-29T04:13:39;13.50;69.87
5938;DHT22;2994;51.220;4.412;2022-12-29T04:16:06;13.54;69.84
5938;DHT22;2994;51.220;4.412;2022-12-29T04:18:32;13.43;69.84
5938;DHT22;2994;51.220;4.412;2022-12-29T04:20:57;13.43;69.74
5938;DHT22;2994;51.220;4.412;2022-12-29T04:23:27;13.49;69.70
5938;DHT22;2994;51.220;4.412;2022-12-29T04:25:52;13.50;69.24
5938;DHT22;2994;51.220;4.412;2022-12-29T04:28:18;13.50;69.04
5938;DHT22;2994;51.220;4.412;2022-12-29T04:30:44;13.53;69.09
5938;DHT22;2994;51.220;4.412;2022-12-29T04:33:09;13.55;69.36
5938;DHT22;2994;51.220;4.412;2022-12-29T04:35:35;13.55;68.52
5938;DHT22;2994;51.220;4.412;2022-12-29T04:38:01;13.51;68.58
5938;DHT22;2994;51.220;4.412;2022-12-29T04:40:27;13.55;68.33
5938;DHT22;2994;51.220;4.412;2022-12-29T04:42:52;13.48;68.23
5938;DHT22;2994;51.220;4.412;2022-12-29T04:45:18;13.56;67.62
5938;DHT22;2994;51.220;4.412;2022-12-29T04:47:43;13.50;68.03
5938;DHT22;2994;51.220;4.412;2022-12-29T04:50:09;13.55;67.52
5938;DHT22;2994;51.220;4.412;2022-12-29T04:52:35;13.51;67.77
5938;DHT22;2994;51.220;4.412;2022-12-29T04:55:00;13.48;67.48
5938;DHT22;2994;51.220;4.412;2022-12-29T04:57:26;13.51;67.77
5938;DHT22;2994;51.220;4.412;2022-12-29T04:59:52;13.54;68.06
5938;DHT22;2994;51.220;4.412;2022-12-29T05:02:17;13.61;67.32
5938;DHT22;2994;51.220;4.412;2022-12-29T05:04:43;13.56;66.96
5938;DHT22;2994;51.220;4.412;2022-12-29T05:07:08;13.48;67.05
5938;DHT22;2994;51.220;4.412;2022-12-29T05:09:34;13.52;67.20
5938;DHT22;2994;51.220;4.412;2022-12-29T05:11:59;13.54;66.75
5938;DHT22;2994;51.220;4.412;2022-12-29T05:14:25;13.54;66.65
5938;DHT22;2994;51.220;4.412;2022-12-29T05:16:50;13.53;66.71
5938;DHT22;2994;51.220;4.412;2022-12-29T05:19:16;13.59;66.76
5938;DHT22;2994;51.220;4.412;2022-12-29T05:21:42;13.64;66.20
5938;DHT22;2994;51.220;4.412;2022-12-29T05:24:07;13.61;66.86
5938;DHT22;2994;51.220;4.412;2022-12-29T05:26:33;13.60;67.12
5938;DHT22;2994;51.220;4.412;2022-12-29T05:28:58;13.61;67.14
5938;DHT22;2994;51.220;4.412;2022-12-29T05:31:25;13.58;67.25
5938;DHT22;2994;51.220;4.412;2022-12-29T05:33:50;13.52;67.55
5938;DHT22;2994;51.220;4.412;2022-12-29T05:36:16;13.54;67.32
5938;DHT22;2994;51.220;4.412;2022-12-29T05:38:41;13.50;67.26
5938;DHT22;2994;51.220;4.412;2022-12-29T05:41:07;13.50;67.23
5938;DHT22;2994;51.220;4.412;2022-12-29T05:43:32;13.54;67.40
5938;DHT22;2994;51.220;4.412;2022-12-29T05:45:57;13.59;67.08
5938;DHT22;2994;51.220;4.412;2022-12-29T05:48:23;13.68;66.65
5938;DHT22;2994;51.220;4.412;2022-12-29T05:50:49;13.63;67.18
5938;DHT22;2994;51.220;4.412;2022-12-29T05:53:15;13.60;67.30
5938;DHT22;2994;51.220;4.412;2022-12-29T05:55:40;13.59;67.40
5938;DHT22;2994;51.220;4.412;2022-12-29T05:58:06;13.61;67.63
5938;DHT22;2994;51.220;4.412;2022-12-29T06:00:31;13.66;67.52
5938;DHT22;2994;51.220;4.412;2022-12-29T06:02:57;13.61;67.99
5938;DHT22;2994;51.220;4.412;2022-12-29T06:05:22;13.63;67.60
5938;DHT22;2994;51.220;4.412;2022-12-29T06:07:48;13.55;67.78
5938;DHT22;2994;51.220;4.412;2022-12-29T06:10:13;13.59;67.88
5938;DHT22;2994;51.220;4.412;2022-12-29T06:12:39;13.58;67.84
5938;DHT22;2994;51.220;4.412;2022-12-29T06:15:04;13.63;67.33
5938;DHT22;2994;51.220;4.412;2022-12-29T06:17:30;13.60;67.23
5938;DHT22;2994;51.220;4.412;2022-12-29T06:19:55;13.54;67.21
5938;DHT22;2994;51.220;4.412;2022-12-29T06:22:21;13.54;67.20
5938;DHT22;2994;51.220;4.412;2022-12-29T06:24:46;13.58;67.02
5938;DHT22;2994;51.220;4.412;2022-12-29T06:27:12;13.51;67.26
5938;DHT22;2994;51.220;4.412;2022-12-29T06:29:39;13.52;67.36
5938;DHT22;2994;51.220;4.412;2022-12-29T06:32:05;13.48;67.08
5938;DHT22;2994;51.220;4.412;2022-12-29T06:34:31;13.47;67.14
5938;DHT22;2994;51.220;4.412;2022-12-29T06:36:56;13.47;66.64
5938;DHT22;2994;51.220;4.412;2022-12-29T06:39:25;13.50;66.92
5938;DHT22;2994;51.220;4.412;2022-12-29T06:41:53;13.46;66.47
5938;DHT22;2994;51.220;4.412;2022-12-29T06:44:22;13.49;66.47
5938;DHT22;2994;51.220;4.412;2022-12-29T06:46:48;13.48;66.11
5938;DHT22;2994;51.220;4.412;2022-12-29T06:49:14;13.43;65.75
5938;DHT22;2994;51.220;4.412;2022-12-29T06:51:39;13.40;65.45
5938;DHT22;2994;51.220;4.412;2022-12-29T06:54:05;13.47;65.41
5938;DHT22;2994;51.220;4.412;2022-12-29T06:56:31;13.48;65.46
5938;DHT22;2994;51.220;4.412;2022-12-29T06:58:56;13.44;65.58
5938;DHT22;2994;51.220;4.412;2022-12-29T07:01:22;13.48;65.76
5938;DHT22;2994;51.220;4.412;2022-12-29T07:03:47;13.50;65.61
5938;DHT22;2994;51.220;4.412;2022-12-29T07:06:13;13.49;65.73
5938;DHT22;2994;51.220;4.412;2022-12-29T07:08:38;13.52;65.49
5938;DHT22;2994;51.220;4.412;2022-12-29T07:11:04;13.41;66.45
5938;DHT22;2994;51.220;4.412;2022-12-29T07:13:30;13.39;66.31
5938;DHT22;2994;51.220;4.412;2022-12-29T07:15:55;13.36;66.58
5938;DHT22;2994;51.220;4.412;2022-12-29T07:18:21;13.46;66.49
5938;DHT22;2994;51.220;4.412;2022-12-29T07:20:46;13.37;66.09
5938;DHT22;2994;51.220;4.412;2022-12-29T07:23:14;13.40;65.84
5938;DHT22;2994;51.220;4.412;2022-12-29T07:25:40;13.36;65.77
5938;DHT22;2994;51.220;4.412;2022-12-29T07:28:06;13.35;65.83
5938;DHT22;2994;51.220;4.412;2022-12-29T07:30:32;13.32;65.83
5938;DHT22;2994;51.220;4.412;2022-12-29T07:32:58;13.39;66.17
5938;DHT22;2994;51.220;4.412;2022-12-29T07:35:26;13.39;65.58
5938;DHT22;2994;51.220;4.412;2022-12-29T07:37:55;13.37;64.89
5938;DHT22;2994;51.220;4.412;2022-12-29T07:40:21;13.33;64.59
5938;DHT22;2994;51.220;4.412;2022-12-29T07:42:46;13.39;64.65
5938;DHT22;2994;51.220;4.412;2022-12-29T07:45:11;13.44;64.18
5938;DHT22;2994;51.220;4.412;2022-12-29T07:47:40;13.38;64.59
5938;DHT22;2994;51.220;4.412;2022-12-29T07:50:06;13.38;63.92
5938;DHT22;2994;51.220;4.412;2022-12-29T07:52:31;13.44;64.17
5938;DHT22;2994;51.220;4.412;2022-12-29T07:54:59;13.44;64.56
5938;DHT22;2994;51.220;4.412;2022-12-29T07:57:25;13.43;64.05
5938;DHT22;2994;51.220;4.412;2022-12-29T07:59:50;13.48;63.99
5938;DHT22;2994;51.220;4.412;2022-12-29T08:02:16;13.53;63.87
5938;DHT22;2994;51.220;4.412;2022-12-29T08:04:41;13.50;63.58
5938;DHT22;2994;51.220;4.412;2022-12-29T08:07:06;13.52;63.17
5938;DHT22;2994;51.220;4.412;2022-12-29T08:09:32;13.53;63.47
5938;DHT22;2994;51.220;4.412;2022-12-29T08:11:57;13.54;62.99
5938;DHT22;2994;51.220;4.412;2022-12-29T08:14:23;13.52;63.09
5938;DHT22;2994;51.220;4.412;2022-12-29T08:16:48;13.55;62.47
5938;DHT22;2994;51.220;4.412;2022-12-29T08:19:17;13.59;62.66
5938;DHT22;2994;51.220;4.412;2022-12-29T08:21:42;13.59;62.99
5938;DHT22;2994;51.220;4.412;2022-12-29T08:24:08;13.50;62.89
5938;DHT22;2994;51.220;4.412;2022-12-29T08:26:33;13.55;62.47
5938;DHT22;2994;51.220;4.412;2022-12-29T08:28:59;13.53;62.87
5938;DHT22;2994;51.220;4.412;2022-12-29T08:31:24;13.52;62.97
5938;DHT22;2994;51.220;4.412;2022-12-29T08:33:50;13.55;63.27
5938;DHT22;2994;51.220;4.412;2022-12-29T08:36:16;13.53;62.86
5938;DHT22;2994;51.220;4.412;2022-12-29T08:38:41;13.60;62.92
5938;DHT22;2994;51.220;4.412;2022-12-29T08:41:07;13.54;63.67
5938;DHT22;2994;51.220;4.412;2022-12-29T08:43:32;13.43;64.16
5938;DHT22;2994;51.220;4.412;2022-12-29T08:45:58;13.52;64.43
5938;DHT22;2994;51.220;4.412;2022-12-29T08:48:24;13.39;65.56
5938;DHT22;2994;51.220;4.412;2022-12-29T08:50:50;13.33;66.01
5938;DHT22;2994;51.220;4.412;2022-12-29T08:53:16;13.37;65.69
5938;DHT22;2994;51.220;4.412;2022-12-29T08:55:53;13.32;66.17
5938;DHT22;2994;51.220;4.412;2022-12-29T08:58:19;13.27;66.70
5938;DHT22;2994;51.220;4.412;2022-12-29T09:00:44;13.30;66.65
5938;DHT22;2994;51.220;4.412;2022-12-29T09:03:10;13.27;66.65
5938;DHT22;2994;51.220;4.412;2022-12-29T09:05:35;13.19;67.05
5938;DHT22;2994;51.220;4.412;2022-12-29T09:08:01;13.20;67.46
5938;DHT22;2994;51.220;4.412;2022-12-29T09:10:26;13.16;67.87
5938;DHT22;2994;51.220;4.412;2022-12-29T09:12:52;13.32;67.12
5938;DHT22;2994;51.220;4.412;2022-12-29T09:15:17;13.14;67.62
5938;DHT22;2994;51.220;4.412;2022-12-29T09:17:43;13.17;67.52
5938;DHT22;2994;51.220;4.412;2022-12-29T09:20:10;13.10;67.52
5938;DHT22;2994;51.220;4.412;2022-12-29T09:22:36;12.97;68.10
5938;DHT22;2994;51.220;4.412;2022-12-29T09:25:02;13.01;68.38
5938;DHT22;2994;51.220;4.412;2022-12-29T09:27:27;13.03;68.64
5938;DHT22;2994;51.220;4.412;2022-12-29T09:29:53;12.96;69.11
5938;DHT22;2994;51.220;4.412;2022-12-29T09:32:18;13.05;68.78
5938;DHT22;2994;51.220;4.412;2022-12-29T09:34:44;12.86;69.62
5938;DHT22;2994;51.220;4.412;2022-12-29T09:37:09;12.95;69.39
5938;DHT22;2994;51.220;4.412;2022-12-29T09:39:34;13.01;69.10
5938;DHT22;2994;51.220;4.412;2022-12-29T09:42:14;12.92;69.30
5938;DHT22;2994;51.220;4.412;2022-12-29T09:47:14;12.90;69.42
5938;DHT22;2994;51.220;4.412;2022-12-29T09:49:49;12.88;69.61
5938;DHT22;2994;51.220;4.412;2022-12-29T09:52:29;12.91;69.56
5938;DHT22;2994;51.220;4.412;2022-12-29T09:57:35;12.87;70.10
5938;DHT22;2994;51.220;4.412;2022-12-29T10:00:25;12.86;70.06
5938;DHT22;2994;51.220;4.412;2022-12-29T10:02:59;12.93;69.73
5938;DHT22;2994;51.220;4.412;2022-12-29T10:08:20;12.73;70.47
5938;DHT22;2994;51.220;4.412;2022-12-29T10:18:48;12.77;70.30
5938;DHT22;2994;51.220;4.412;2022-12-29T10:21:28;12.87;69.79
5938;DHT22;2994;51.220;4.412;2022-12-29T10:23:59;12.82;69.94
5938;DHT22;2994;51.220;4.412;2022-12-29T10:26:29;12.87;69.97
5938;DHT22;2994;51.220;4.412;2022-12-29T10:29:02;12.87;70.33
5938;DHT22;2994;51.220;4.412;2022-12-29T10:31:43;12.84;70.88
5938;DHT22;2994;51.220;4.412;2022-12-29T10:34:21;12.96;70.87
5938;DHT22;2994;51.220;4.412;2022-12-29T10:36:54;13.03;70.78
5938;DHT22;2994;51.220;4.412;2022-12-29T10:39:41;13.02;70.67
5938;DHT22;2994;51.220;4.412;2022-12-29T10:42:35;13.02;70.77
5938;DHT22;2994;51.220;4.412;2022-12-29T10:45:03;13.01;70.58
5938;DHT22;2994;51.220;4.412;2022-12-29T10:47:33;13.04;70.55
5938;DHT22;2994;51.220;4.412;2022-12-29T10:50:00;13.03;70.39
5938;DHT22;2994;51.220;4.412;2022-12-29T10:52:28;13.01;70.59
5938;DHT22;2994;51.220;4.412;2022-12-29T10:55:03;13.01;70.46
5938;DHT22;2994;51.220;4.412;2022-12-29T10:57:42;13.14;69.43
5938;DHT22;2994;51.220;4.412;2022-12-29T11:00:14;12.97;69.84
5938;DHT22;2994;51.220;4.412;2022-12-29T11:03:16;12.89;70.34
5938;DHT22;2994;51.220;4.412;2022-12-29T11:06:12;12.95;69.86
5938;DHT22;2994;51.220;4.412;2022-12-29T11:08:49;13.04;69.72
5938;DHT22;2994;51.220;4.412;2022-12-29T11:11:33;13.12;69.41
5938;DHT22;2994;51.220;4.412;2022-12-29T11:14:08;12.94;69.46
5938;DHT22;2994;51.220;4.412;2022-12-29T11:16:35;12.99;68.94
5938;DHT22;2994;51.220;4.412;2022-12-29T11:19:01;13.01;68.77
5938;DHT22;2994;51.220;4.412;2022-12-29T11:24:02;13.09;67.88
5938;DHT22;2994;51.220;4.412;2022-12-29T11:26:32;13.18;67.65
5938;DHT22;2994;51.220;4.412;2022-12-29T11:31:46;13.15;67.06
5938;DHT22;2994;51.220;4.412;2022-12-29T11:34:31;13.10;67.00
5938;DHT22;2994;51.220;4.412;2022-12-29T11:39:52;13.20;66.56
5938;DHT22;2994;51.220;4.412;2022-12-29T11:42:23;13.11;66.45
5938;DHT22;2994;51.220;4.412;2022-12-29T11:44:49;13.06;66.70
5938;DHT22;2994;51.220;4.412;2022-12-29T11:47:31;13.06;66.60
5938;DHT22;2994;51.220;4.412;2022-12-29T11:50:00;13.19;66.07
5938;DHT22;2994;51.220;4.412;2022-12-29T11:52:29;13.27;66.07
5938;DHT22;2994;51.220;4.412;2022-12-29T11:54:56;13.32;66.06
5938;DHT22;2994;51.220;4.412;2022-12-29T11:57:23;13.37;66.17
5938;DHT22;2994;51.220;4.412;2022-12-29T11:59:54;13.43;66.03
5938;DHT22;2994;51.220;4.412;2022-12-29T12:02:32;13.38;65.95
5938;DHT22;2994;51.220;4.412;2022-12-29T12:08:22;13.40;65.77
5938;DHT22;2994;51.220;4.412;2022-12-29T12:11:19;13.46;65.88
5938;DHT22;2994;51.220;4.412;2022-12-29T12:16:48;13.49;65.59
5938;DHT22;2994;51.220;4.412;2022-12-29T12:22:13;13.22;65.91
5938;DHT22;2994;51.220;4.412;2022-12-29T12:30:10;13.41;66.17
5938;DHT22;2994;51.220;4.412;2022-12-29T12:32:46;13.33;66.95
5938;DHT22;2994;51.220;4.412;2022-12-29T12:35:15;13.31;67.33
5938;DHT22;2994;51.220;4.412;2022-12-29T12:37:48;13.32;67.69
5938;DHT22;2994;51.220;4.412;2022-12-29T12:40:54;13.36;68.10
5938;DHT22;2994;51.220;4.412;2022-12-29T12:43:37;13.36;68.06
5938;DHT22;2994;51.220;4.412;2022-12-29T12:51:59;13.27;69.84
5938;DHT22;2994;51.220;4.412;2022-12-29T12:57:39;13.24;70.70
5938;DHT22;2994;51.220;4.412;2022-12-29T13:00:13;13.34;70.63
5938;DHT22;2994;51.220;4.412;2022-12-29T13:12:11;13.31;71.45
5938;DHT22;2994;51.220;4.412;2022-12-29T13:20:06;13.35;70.75
5938;DHT22;2994;51.220;4.412;2022-12-29T13:22:43;13.30;70.07
5938;DHT22;2994;51.220;4.412;2022-12-29T13:28:23;13.23;69.26
5938;DHT22;2994;51.220;4.412;2022-12-29T13:31:01;13.23;69.13
5938;DHT22;2994;51.220;4.412;2022-12-29T13:33:53;13.22;68.89
5938;DHT22;2994;51.220;4.412;2022-12-29T13:38:58;13.17;68.87
5938;DHT22;2994;51.220;4.412;2022-12-29T13:41:42;13.15;68.79
5938;DHT22;2994;51.220;4.412;2022-12-29T13:44:14;13.18;68.81
5938;DHT22;2994;51.220;4.412;2022-12-29T13:46:44;13.19;68.70
5938;DHT22;2994;51.220;4.412;2022-12-29T13:49:19;13.20;68.66
5938;DHT22;2994;51.220;4.412;2022-12-29T14:02:36;13.07;68.30
5938;DHT22;2994;51.220;4.412;2022-12-29T14:05:15;13.08;68.13
5938;DHT22;2994;51.220;4.412;2022-12-29T14:08:01;13.09;68.38
5938;DHT22;2994;51.220;4.412;2022-12-29T14:10:47;13.15;68.32
5938;DHT22;2994;51.220;4.412;2022-12-29T14:13:21;13.06;66.81
5938;DHT22;2994;51.220;4.412;2022-12-29T14:15:58;13.00;67.36
5938;DHT22;2994;51.220;4.412;2022-12-29T14:18:26;12.96;67.29
5938;DHT22;2994;51.220;4.412;2022-12-29T14:20:59;12.93;67.30
5938;DHT22;2994;51.220;4.412;2022-12-29T14:23:42;12.86;66.94
5938;DHT22;2994;51.220;4.412;2022-12-29T14:26:35;12.93;67.04
5938;DHT22;2994;51.220;4.412;2022-12-29T14:31:52;12.92;66.56
5938;DHT22;2994;51.220;4.412;2022-12-29T14:36:57;12.88;66.91
5938;DHT22;2994;51.220;4.412;2022-12-29T14:39:39;12.81;66.92
5938;DHT22;2994;51.220;4.412;2022-12-29T14:44:50;12.78;66.96
5938;DHT22;2994;51.220;4.412;2022-12-29T14:47:25;12.76;67.09
5938;DHT22;2994;51.220;4.412;2022-12-29T14:49:53;12.75;67.34
5938;DHT22;2994;51.220;4.412;2022-12-29T14:52:22;12.75;66.77
5938;DHT22;2994;51.220;4.412;2022-12-29T14:54:54;12.75;66.74
5938;DHT22;2994;51.220;4.412;2022-12-29T14:57:32;12.73;66.74
5938;DHT22;2994;51.220;4.412;2022-12-29T15:00:16;12.74;66.12
5938;DHT22;2994;51.220;4.412;2022-12-29T15:03:05;12.76;65.46
5938;DHT22;2994;51.220;4.412;2022-12-29T15:09:00;12.65;65.94
5938;DHT22;2994;51.220;4.412;2022-12-29T15:11:13;12.59;65.50
5938;DHT22;2994;51.220;4.412;2022-12-29T15:13:41;12.62;65.56
5938;DHT22;2994;51.220;4.412;2022-12-29T15:16:33;12.66;65.21
5938;DHT22;2994;51.220;4.412;2022-12-29T15:19:01;12.60;64.76
5938;DHT22;2994;51.220;4.412;2022-12-29T15:21:30;12.51;64.65
5938;DHT22;2994;51.220;4.412;2022-12-29T15:23:56;12.55;64.32
5938;DHT22;2994;51.220;4.412;2022-12-29T15:26:22;12.52;64.47
5938;DHT22;2994;51.220;4.412;2022-12-29T15:28:50;12.50;64.53
5938;DHT22;2994;51.220;4.412;2022-12-29T15:31:20;12.51;64.25
5938;DHT22;2994;51.220;4.412;2022-12-29T15:33:48;12.49;64.50
5938;DHT22;2994;51.220;4.412;2022-12-29T15:36:28;12.45;64.18
5938;DHT22;2994;51.220;4.412;2022-12-29T15:38:54;12.46;64.21
5938;DHT22;2994;51.220;4.412;2022-12-29T15:41:39;12.49;64.12
5938;DHT22;2994;51.220;4.412;2022-12-29T15:47:01;12.41;64.11
5938;DHT22;2994;51.220;4.412;2022-12-29T15:49:26;12.47;63.82
5938;DHT22;2994;51.220;4.412;2022-12-29T15:51:52;12.41;64.35
5938;DHT22;2994;51.220;4.412;2022-12-29T15:54:19;12.35;64.45
5938;DHT22;2994;51.220;4.412;2022-12-29T15:56:46;12.42;64.41
5938;DHT22;2994;51.220;4.412;2022-12-29T15:59:33;12.52;63.96
5938;DHT22;2994;51.220;4.412;2022-12-29T16:02:00;12.44;63.97
5938;DHT22;2994;51.220;4.412;2022-12-29T16:04:29;12.33;64.36
5938;DHT22;2994;51.220;4.412;2022-12-29T16:09:33;12.38;63.90
5938;DHT22;2994;51.220;4.412;2022-12-29T16:12:20;12.31;64.00
5938;DHT22;2994;51.220;4.412;2022-12-29T16:14:49;12.37;64.06
5938;DHT22;2994;51.220;4.412;2022-12-29T16:17:18;12.28;64.15
5938;DHT22;2994;51.220;4.412;2022-12-29T16:20:14;12.28;63.62
5938;DHT22;2994;51.220;4.412;2022-12-29T16:22:42;12.28;62.87
5938;DHT22;2994;51.220;4.412;2022-12-29T16:25:31;12.25;63.07
5938;DHT22;2994;51.220;4.412;2022-12-29T16:27:58;12.08;63.44
5938;DHT22;2994;51.220;4.412;2022-12-29T16:30:30;12.03;63.16
5938;DHT22;2994;51.220;4.412;2022-12-29T16:33:01;11.97;63.17
5938;DHT22;2994;51.220;4.412;2022-12-29T16:38:15;12.07;63.24
5938;DHT22;2994;51.220;4.412;2022-12-29T16:40:55;12.02;63.58
5938;DHT22;2994;51.220;4.412;2022-12-29T16:48:23;11.97;63.88
5938;DHT22;2994;51.220;4.412;2022-12-29T16:50:50;11.96;64.05
5938;DHT22;2994;51.220;4.412;2022-12-29T16:53:20;11.99;64.11
5938;DHT22;2994;51.220;4.412;2022-12-29T16:55:47;11.97;64.21
5938;DHT22;2994;51.220;4.412;2022-12-29T16:58:18;11.93;64.35
5938;DHT22;2994;51.220;4.412;2022-12-29T17:00:45;11.79;64.92
5938;DHT22;2994;51.220;4.412;2022-12-29T17:03:11;11.83;64.89
5938;DHT22;2994;51.220;4.412;2022-12-29T17:05:36;11.81;64.81
5938;DHT22;2994;51.220;4.412;2022-12-29T17:08:02;11.70;65.10
5938;DHT22;2994;51.220;4.412;2022-12-29T17:10:28;11.82;64.87
5938;DHT22;2994;51.220;4.412;2022-12-29T17:13:13;11.81;64.82
5938;DHT22;2994;51.220;4.412;2022-12-29T17:15:39;11.84;64.83
5938;DHT22;2994;51.220;4.412;2022-12-29T17:18:04;11.84;64.95
5938;DHT22;2994;51.220;4.412;2022-12-29T17:20:30;11.85;65.03
5938;DHT22;2994;51.220;4.412;2022-12-29T17:22:57;11.75;65.01
5938;DHT22;2994;51.220;4.412;2022-12-29T17:25:31;11.75;65.31
5938;DHT22;2994;51.220;4.412;2022-12-29T17:28:30;11.78;65.22
5938;DHT22;2994;51.220;4.412;2022-12-29T17:31:03;11.78;65.21
5938;DHT22;2994;51.220;4.412;2022-12-29T17:33:35;11.71;65.46
5938;DHT22;2994;51.220;4.412;2022-12-29T17:36:01;11.69;65.53
5938;DHT22;2994;51.220;4.412;2022-12-29T17:38:29;11.76;65.27
5938;DHT22;2994;51.220;4.412;2022-12-29T17:40:55;11.79;65.35
5938;DHT22;2994;51.220;4.412;2022-12-29T17:43:20;11.76;65.35
5938;DHT22;2994;51.220;4.412;2022-12-29T17:45:49;11.76;65.41
5938;DHT22;2994;51.220;4.412;2022-12-29T17:48:17;11.71;65.29
5938;DHT22;2994;51.220;4.412;2022-12-29T17:50:45;11.77;65.25
5938;DHT22;2994;51.220;4.412;2022-12-29T17:53:13;11.77;65.26
5938;DHT22;2994;51.220;4.412;2022-12-29T17:55:39;11.81;65.46
5938;DHT22;2994;51.220;4.412;2022-12-29T18:00:40;11.85;65.33
5938;DHT22;2994;51.220;4.412;2022-12-29T18:03:08;11.89;65.14
5938;DHT22;2994;51.220;4.412;2022-12-29T18:05:37;11.86;65.28
5938;DHT22;2994;51.220;4.412;2022-12-29T18:08:03;11.91;65.23
5938;DHT22;2994;51.220;4.412;2022-12-29T18:10:29;11.90;65.27
5938;DHT22;2994;51.220;4.412;2022-12-29T18:12:58;11.93;65.08
5938;DHT22;2994;51.220;4.412;2022-12-29T18:15:29;11.97;64.70
5938;DHT22;2994;51.220;4.412;2022-12-29T18:18:00;11.93;64.98
5938;DHT22;2994;51.220;4.412;2022-12-29T18:20:29;11.88;65.13
5938;DHT22;2994;51.220;4.412;2022-12-29T18:22:55;11.87;65.21
5938;DHT22;2994;51.220;4.412;2022-12-29T18:25:27;11.85;65.14
5938;DHT22;2994;51.220;4.412;2022-12-29T18:27:55;11.90;64.79
5938;DHT22;2994;51.220;4.412;2022-12-29T18:30:21;11.84;64.87
5938;DHT22;2994;51.220;4.412;2022-12-29T18:32:46;11.91;64.51
5938;DHT22;2994;51.220;4.412;2022-12-29T18:35:37;11.88;64.82
5938;DHT22;2994;51.220;4.412;2022-12-29T18:38:03;11.83;64.91
5938;DHT22;2994;51.220;4.412;2022-12-29T18:40:31;11.81;65.01
5938;DHT22;2994;51.220;4.412;2022-12-29T18:42:56;11.87;64.64
5938;DHT22;2994;51.220;4.412;2022-12-29T18:45:22;11.82;65.00